sensor_id;sensor_type;location;lat;lon;timestamp;pressure;altitude;pressure_sealevel;temperature;humidity
27984;BME280;15317;50.360;8.726;2022-10-13T00:02:29;99976.78;;;7.76;100.00
27984;BME280;15317;50.360;8.726;2022-10-13T00:06:32;99988.69;;;7.74;100.00
27984;BME280;15317;50.360;8.726;2022-10-13T00:10:36;99994.09;;;7.74;100.00
27984;BME280;15317;50.360;8.726;2022-10-13T00:14:38;99993.66;;;7.69;100.00
27984;BME280;15317;50.360;8.726;2022-10-13T00:18:40;99999.56;;;7.63;100.00
27984;BME280;15317;50.360;8.726;2022-10-13T00:22:44;99992.69;;;7.59;100.00
27984;BME280;15317;50.360;8.726;2022-10-13T00:26:48;99980.66;;;7.51;100.00
27984;BME280;15317;50.360;8.726;2022-10-13T00:30:50;99988.31;;;7.46;100.00
27984;BME280;15317;50.360;8.726;2022-10-13T00:34:52;99992.50;;;7.39;100.00
27984;BME280;15317;50.360;8.726;2022-10-13T00:38:56;99988.59;;;7.32;100.00
27984;BME280;15317;50.360;8.726;2022-10-13T00:42:58;99980.50;;;7.32;100.00
27984;BME280;15317;50.360;8.726;2022-10-13T00:47:00;99977.91;;;7.31;100.00
27984;BME280;15317;50.360;8.726;2022-10-13T00:51:03;99991.81;;;7.26;100.00
27984;BME280;15317;50.360;8.726;2022-10-13T00:55:10;99993.91;;;7.23;100.00
27984;BME280;15317;50.360;8.726;2022-10-13T00:59:17;99988.16;;;7.16;100.00
27984;BME280;15317;50.360;8.726;2022-10-13T01:03:23;99974.03;;;7.12;100.00
27984;BME280;15317;50.360;8.726;2022-10-13T01:07:26;99973.44;;;7.09;100.00
27984;BME280;15317;50.360;8.726;2022-10-13T01:11:44;99982.03;;;7.14;100.00
27984;BME280;15317;50.360;8.726;2022-10-13T01:15:50;99978.06;;;7.18;100.00
27984;BME280;15317;50.360;8.726;2022-10-13T01:24:42;99969.16;;;7.38;100.00
27984;BME280;15317;50.360;8.726;2022-10-13T01:29:02;99977.09;;;7.51;100.00
27984;BME280;15317;50.360;8.726;2022-10-13T01:33:19;99972.53;;;7.63;100.00
27984;BME280;15317;50.360;8.726;2022-10-13T01:37:28;99977.66;;;7.66;100.00
27984;BME280;15317;50.360;8.726;2022-10-13T01:41:36;99973.22;;;7.76;100.00
27984;BME280;15317;50.360;8.726;2022-10-13T01:45:43;99965.88;;;7.87;100.00
27984;BME280;15317;50.360;8.726;2022-10-13T01:49:49;99963.59;;;8.04;100.00
27984;BME280;15317;50.360;8.726;2022-10-13T01:53:53;99957.53;;;8.11;100.00
27984;BME280;15317;50.360;8.726;2022-10-13T01:57:55;99948.00;;;8.17;100.00
27984;BME280;15317;50.360;8.726;2022-10-13T02:02:02;99955.00;;;8.19;100.00
27984;BME280;15317;50.360;8.726;2022-10-13T02:06:18;99949.63;;;8.29;100.00
27984;BME280;15317;50.360;8.726;2022-10-13T02:10:26;99943.16;;;8.31;100.00
27984;BME280;15317;50.360;8.726;2022-10-13T02:14:31;99946.56;;;8.33;100.00
27984;BME280;15317;50.360;8.726;2022-10-13T02:18:34;99942.59;;;8.38;100.00
27984;BME280;15317;50.360;8.726;2022-10-13T02:22:40;99939.78;;;8.39;100.00
27984;BME280;15317;50.360;8.726;2022-10-13T02:26:44;99940.34;;;8.43;100.00
27984;BME280;15317;50.360;8.726;2022-10-13T02:30:46;99931.38;;;8.42;100.00
27984;BME280;15317;50.360;8.726;2022-10-13T02:34:49;99927.25;;;8.48;100.00
27984;BME280;15317;50.360;8.726;2022-10-13T02:38:52;99923.28;;;8.52;100.00
27984;BME280;15317;50.360;8.726;2022-10-13T02:42:54;99925.28;;;8.50;100.00
27984;BME280;15317;50.360;8.726;2022-10-13T02:46:56;99912.72;;;8.49;100.00
27984;BME280;15317;50.360;8.726;2022-10-13T02:50:58;99912.84;;;8.47;100.00
27984;BME280;15317;50.360;8.726;2022-10-13T02:55:02;99909.84;;;8.41;100.00
27984;BME280;15317;50.360;8.726;2022-10-13T02:59:05;99903.00;;;8.46;100.00
27984;BME280;15317;50.360;8.726;2022-10-13T03:03:07;99903.44;;;8.42;100.00
27984;BME280;15317;50.360;8.726;2022-10-13T03:07:09;99917.97;;;8.41;100.00
27984;BME280;15317;50.360;8.726;2022-10-13T03:11:12;99913.28;;;8.43;100.00
27984;BME280;15317;50.360;8.726;2022-10-13T03:15:14;99909.41;;;8.36;100.00
27984;BME280;15317;50.360;8.726;2022-10-13T03:19:16;99904.84;;;8.36;100.00
27984;BME280;15317;50.360;8.726;2022-10-13T03:23:18;99904.09;;;8.34;100.00
27984;BME280;15317;50.360;8.726;2022-10-13T03:27:22;99904.72;;;8.38;100.00
27984;BME280;15317;50.360;8.726;2022-10-13T03:31:24;99905.81;;;8.35;100.00
27984;BME280;15317;50.360;8.726;2022-10-13T03:35:26;99903.41;;;8.32;100.00
27984;BME280;15317;50.360;8.726;2022-10-13T03:39:28;99912.00;;;8.26;100.00
27984;BME280;15317;50.360;8.726;2022-10-13T03:43:31;99907.47;;;8.26;100.00
27984;BME280;15317;50.360;8.726;2022-10-13T03:47:33;99913.16;;;8.23;100.00
27984;BME280;15317;50.360;8.726;2022-10-13T03:51:35;99910.69;;;8.20;100.00
27984;BME280;15317;50.360;8.726;2022-10-13T03:55:37;99902.88;;;8.17;100.00
27984;BME280;15317;50.360;8.726;2022-10-13T03:59:41;99913.69;;;8.17;100.00
27984;BME280;15317;50.360;8.726;2022-10-13T04:03:43;99911.13;;;8.16;100.00
27984;BME280;15317;50.360;8.726;2022-10-13T04:07:45;99921.94;;;8.16;100.00
27984;BME280;15317;50.360;8.726;2022-10-13T04:11:48;99917.38;;;8.16;100.00
27984;BME280;15317;50.360;8.726;2022-10-13T04:15:52;99917.38;;;8.16;100.00
27984;BME280;15317;50.360;8.726;2022-10-13T04:19:54;99918.13;;;8.18;100.00
27984;BME280;15317;50.360;8.726;2022-10-13T04:23:57;99925.22;;;8.19;100.00
27984;BME280;15317;50.360;8.726;2022-10-13T04:27:59;99923.38;;;8.20;100.00
27984;BME280;15317;50.360;8.726;2022-10-13T04:32:03;99919.09;;;8.17;100.00
27984;BME280;15317;50.360;8.726;2022-10-13T04:36:07;99925.38;;;8.18;100.00
27984;BME280;15317;50.360;8.726;2022-10-13T04:40:09;99915.78;;;8.14;100.00
27984;BME280;15317;50.360;8.726;2022-10-13T04:44:11;99916.53;;;8.16;100.00
27984;BME280;15317;50.360;8.726;2022-10-13T04:48:15;99915.09;;;8.12;100.00
27984;BME280;15317;50.360;8.726;2022-10-13T04:52:17;99911.66;;;8.10;100.00
27984;BME280;15317;50.360;8.726;2022-10-13T04:56:19;99915.59;;;8.06;100.00
27984;BME280;15317;50.360;8.726;2022-10-13T05:00:21;99916.34;;;8.08;100.00
27984;BME280;15317;50.360;8.726;2022-10-13T05:04:26;99907.50;;;8.06;100.00
27984;BME280;15317;50.360;8.726;2022-10-13T05:08:28;99911.78;;;8.08;100.00
27984;BME280;15317;50.360;8.726;2022-10-13T05:12:30;99903.66;;;8.08;100.00
27984;BME280;15317;50.360;8.726;2022-10-13T05:16:32;99898.25;;;8.08;100.00
27984;BME280;15317;50.360;8.726;2022-10-13T05:20:35;99892.28;;;8.05;100.00
27984;BME280;15317;50.360;8.726;2022-10-13T05:24:38;99892.41;;;8.03;100.00
27984;BME280;15317;50.360;8.726;2022-10-13T05:28:41;99896.81;;;8.04;100.00
27984;BME280;15317;50.360;8.726;2022-10-13T05:32:43;99887.31;;;8.10;100.00
27984;BME280;15317;50.360;8.726;2022-10-13T05:36:46;99885.19;;;8.13;100.00
27984;BME280;15317;50.360;8.726;2022-10-13T05:40:48;99876.94;;;8.15;100.00
27984;BME280;15317;50.360;8.726;2022-10-13T05:44:50;99882.09;;;8.18;100.00
27984;BME280;15317;50.360;8.726;2022-10-13T05:48:52;99869.13;;;8.21;100.00
27984;BME280;15317;50.360;8.726;2022-10-13T05:52:56;99873.69;;;8.21;100.00
27984;BME280;15317;50.360;8.726;2022-10-13T05:57:01;99873.13;;;8.27;100.00
27984;BME280;15317;50.360;8.726;2022-10-13T06:01:06;99875.84;;;8.27;100.00
27984;BME280;15317;50.360;8.726;2022-10-13T06:05:13;99877.56;;;8.28;100.00
27984;BME280;15317;50.360;8.726;2022-10-13T06:09:18;99881.59;;;8.33;100.00
27984;BME280;15317;50.360;8.726;2022-10-13T06:13:20;99884.31;;;8.33;100.00
27984;BME280;15317;50.360;8.726;2022-10-13T06:17:22;99876.78;;;8.37;100.00
27984;BME280;15317;50.360;8.726;2022-10-13T06:21:24;99878.63;;;8.37;100.00
27984;BME280;15317;50.360;8.726;2022-10-13T06:25:28;99881.34;;;8.37;100.00
27984;BME280;15317;50.360;8.726;2022-10-13T06:29:30;99872.63;;;8.33;100.00
27984;BME280;15317;50.360;8.726;2022-10-13T06:33:33;99874.81;;;8.39;100.00
27984;BME280;15317;50.360;8.726;2022-10-13T06:37:35;99864.00;;;8.49;100.00
27984;BME280;15317;50.360;8.726;2022-10-13T06:41:38;99872.00;;;8.50;100.00
27984;BME280;15317;50.360;8.726;2022-10-13T06:45:40;99872.41;;;8.46;100.00
27984;BME280;15317;50.360;8.726;2022-10-13T06:49:42;99876.13;;;8.54;100.00
27984;BME280;15317;50.360;8.726;2022-10-13T06:53:45;99875.13;;;8.55;100.00
27984;BME280;15317;50.360;8.726;2022-10-13T06:57:48;99886.25;;;8.62;100.00
27984;BME280;15317;50.360;8.726;2022-10-13T07:01:50;99882.69;;;8.61;100.00
27984;BME280;15317;50.360;8.726;2022-10-13T07:05:53;99882.31;;;8.66;100.00
27984;BME280;15317;50.360;8.726;2022-10-13T07:09:55;99888.88;;;8.73;100.00
27984;BME280;15317;50.360;8.726;2022-10-13T07:13:58;99883.78;;;8.80;100.00
27984;BME280;15317;50.360;8.726;2022-10-13T07:18:00;99873.06;;;8.78;100.00
27984;BME280;15317;50.360;8.726;2022-10-13T07:22:02;99874.34;;;8.84;100.00
27984;BME280;15317;50.360;8.726;2022-10-13T07:26:06;99880.06;;;8.90;100.00
27984;BME280;15317;50.360;8.726;2022-10-13T07:30:10;99878.78;;;8.94;100.00
27984;BME280;15317;50.360;8.726;2022-10-13T07:34:14;99875.38;;;9.02;100.00
27984;BME280;15317;50.360;8.726;2022-10-13T07:38:16;99878.09;;;9.11;100.00
27984;BME280;15317;50.360;8.726;2022-10-13T07:42:18;99876.09;;;9.23;100.00
27984;BME280;15317;50.360;8.726;2022-10-13T07:46:21;99879.53;;;9.35;100.00
27984;BME280;15317;50.360;8.726;2022-10-13T07:50:24;99853.28;;;9.35;100.00
27984;BME280;15317;50.360;8.726;2022-10-13T07:54:26;99867.56;;;9.47;100.00
27984;BME280;15317;50.360;8.726;2022-10-13T07:58:28;99874.97;;;9.55;100.00
27984;BME280;15317;50.360;8.726;2022-10-13T08:02:32;99868.13;;;9.50;100.00
27984;BME280;15317;50.360;8.726;2022-10-13T08:06:34;99877.84;;;9.53;100.00
27984;BME280;15317;50.360;8.726;2022-10-13T08:10:36;99885.25;;;9.51;100.00
27984;BME280;15317;50.360;8.726;2022-10-13T08:14:38;99886.81;;;9.54;100.00
27984;BME280;15317;50.360;8.726;2022-10-13T08:18:43;99883.97;;;9.45;100.00
27984;BME280;15317;50.360;8.726;2022-10-13T08:22:45;99878.38;;;9.57;100.00
27984;BME280;15317;50.360;8.726;2022-10-13T08:26:47;99879.66;;;9.62;100.00
27984;BME280;15317;50.360;8.726;2022-10-13T08:30:50;99864.97;;;9.65;100.00
27984;BME280;15317;50.360;8.726;2022-10-13T08:34:54;99870.53;;;9.63;100.00
27984;BME280;15317;50.360;8.726;2022-10-13T08:38:56;99866.25;;;9.70;100.00
27984;BME280;15317;50.360;8.726;2022-10-13T08:42:58;99865.53;;;9.68;100.00
27984;BME280;15317;50.360;8.726;2022-10-13T08:47:05;99857.56;;;9.67;100.00
27984;BME280;15317;50.360;8.726;2022-10-13T08:51:14;99842.69;;;9.71;100.00
27984;BME280;15317;50.360;8.726;2022-10-13T08:55:22;99852.69;;;9.70;100.00
27984;BME280;15317;50.360;8.726;2022-10-13T08:59:25;99865.38;;;9.79;100.00
27984;BME280;15317;50.360;8.726;2022-10-13T09:03:28;99863.78;;;9.86;100.00
27984;BME280;15317;50.360;8.726;2022-10-13T09:07:33;99862.19;;;9.94;100.00
27984;BME280;15317;50.360;8.726;2022-10-13T09:11:39;99853.47;;;10.00;100.00
27984;BME280;15317;50.360;8.726;2022-10-13T09:15:42;99861.47;;;10.01;100.00
27984;BME280;15317;50.360;8.726;2022-10-13T09:19:56;99874.03;;;10.02;100.00
27984;BME280;15317;50.360;8.726;2022-10-13T09:24:06;99863.72;;;10.06;100.00
27984;BME280;15317;50.360;8.726;2022-10-13T09:28:10;99859.16;;;10.16;100.00
27984;BME280;15317;50.360;8.726;2022-10-13T09:32:17;99856.00;;;10.11;100.00
27984;BME280;15317;50.360;8.726;2022-10-13T09:36:20;99855.00;;;10.12;100.00
27984;BME280;15317;50.360;8.726;2022-10-13T09:40:23;99851.44;;;10.21;100.00
27984;BME280;15317;50.360;8.726;2022-10-13T09:44:27;99852.81;;;10.35;100.00
27984;BME280;15317;50.360;8.726;2022-10-13T09:48:34;99855.06;;;10.39;100.00
27984;BME280;15317;50.360;8.726;2022-10-13T09:52:37;99847.88;;;10.48;100.00
27984;BME280;15317;50.360;8.726;2022-10-13T09:56:42;99859.84;;;10.55;100.00
27984;BME280;15317;50.360;8.726;2022-10-13T10:00:48;99857.00;;;10.56;100.00
27984;BME280;15317;50.360;8.726;2022-10-13T10:04:53;99851.25;;;10.59;100.00
27984;BME280;15317;50.360;8.726;2022-10-13T10:09:00;99854.06;;;10.67;100.00
27984;BME280;15317;50.360;8.726;2022-10-13T10:13:09;99846.50;;;10.71;100.00
27984;BME280;15317;50.360;8.726;2022-10-13T10:17:18;99843.91;;;10.69;100.00
27984;BME280;15317;50.360;8.726;2022-10-13T10:21:28;99850.59;;;10.75;100.00
27984;BME280;15317;50.360;8.726;2022-10-13T10:25:36;99843.69;;;10.81;100.00
27984;BME280;15317;50.360;8.726;2022-10-13T10:29:45;99831.34;;;10.86;100.00
27984;BME280;15317;50.360;8.726;2022-10-13T10:33:58;99827.34;;;10.90;100.00
27984;BME280;15317;50.360;8.726;2022-10-13T10:38:14;99809.09;;;11.18;100.00
27984;BME280;15317;50.360;8.726;2022-10-13T10:42:49;99790.81;;;11.46;100.00
27984;BME280;15317;50.360;8.726;2022-10-13T10:47:00;99790.41;;;11.84;100.00
27984;BME280;15317;50.360;8.726;2022-10-13T10:51:04;99784.63;;;12.13;100.00
27984;BME280;15317;50.360;8.726;2022-10-13T10:55:13;99788.94;;;12.24;100.00
27984;BME280;15317;50.360;8.726;2022-10-13T10:59:25;99770.44;;;12.44;100.00
27984;BME280;15317;50.360;8.726;2022-10-13T11:03:39;99779.38;;;12.62;100.00
27984;BME280;15317;50.360;8.726;2022-10-13T11:07:56;99770.06;;;12.89;100.00
27984;BME280;15317;50.360;8.726;2022-10-13T11:11:58;99766.88;;;13.10;100.00
27984;BME280;15317;50.360;8.726;2022-10-13T11:16:23;99777.97;;;13.16;100.00
27984;BME280;15317;50.360;8.726;2022-10-13T11:20:55;99770.13;;;13.13;100.00
27984;BME280;15317;50.360;8.726;2022-10-13T11:25:01;99772.69;;;13.39;100.00
27984;BME280;15317;50.360;8.726;2022-10-13T11:29:15;99767.06;;;13.49;100.00
27984;BME280;15317;50.360;8.726;2022-10-13T11:33:50;99743.34;;;13.57;100.00
27984;BME280;15317;50.360;8.726;2022-10-13T11:38:14;99738.53;;;13.67;100.00
27984;BME280;15317;50.360;8.726;2022-10-13T11:42:32;99735.34;;;14.11;100.00
27984;BME280;15317;50.360;8.726;2022-10-13T11:46:54;99723.84;;;14.23;100.00
27984;BME280;15317;50.360;8.726;2022-10-13T11:51:14;99729.63;;;14.29;100.00
27984;BME280;15317;50.360;8.726;2022-10-13T11:55:31;99725.75;;;14.23;100.00
27984;BME280;15317;50.360;8.726;2022-10-13T11:59:35;99726.44;;;14.17;100.00
27984;BME280;15317;50.360;8.726;2022-10-13T12:03:39;99711.38;;;14.29;100.00
27984;BME280;15317;50.360;8.726;2022-10-13T12:07:42;99707.59;;;14.30;100.00
27984;BME280;15317;50.360;8.726;2022-10-13T12:11:56;99700.72;;;14.42;100.00
27984;BME280;15317;50.360;8.726;2022-10-13T12:16:02;99699.28;;;14.54;100.00
27984;BME280;15317;50.360;8.726;2022-10-13T12:20:19;99714.06;;;14.37;100.00
27984;BME280;15317;50.360;8.726;2022-10-13T12:24:22;99709.78;;;14.35;100.00
27984;BME280;15317;50.360;8.726;2022-10-13T12:28:28;99704.66;;;14.40;100.00
27984;BME280;15317;50.360;8.726;2022-10-13T12:32:32;99709.75;;;14.51;100.00
27984;BME280;15317;50.360;8.726;2022-10-13T12:36:35;99702.09;;;14.46;100.00
27984;BME280;15317;50.360;8.726;2022-10-13T12:40:38;99693.56;;;14.41;100.00
27984;BME280;15317;50.360;8.726;2022-10-13T12:44:41;99686.66;;;14.53;100.00
27984;BME280;15317;50.360;8.726;2022-10-13T12:48:44;99690.16;;;14.70;100.00
27984;BME280;15317;50.360;8.726;2022-10-13T12:52:49;99686.06;;;14.89;100.00
27984;BME280;15317;50.360;8.726;2022-10-13T12:56:54;99682.91;;;15.00;100.00
27984;BME280;15317;50.360;8.726;2022-10-13T13:01:05;99682.41;;;15.19;100.00
27984;BME280;15317;50.360;8.726;2022-10-13T13:05:29;99681.56;;;15.19;100.00
27984;BME280;15317;50.360;8.726;2022-10-13T13:09:33;99676.31;;;15.09;100.00
27984;BME280;15317;50.360;8.726;2022-10-13T13:13:38;99662.25;;;14.97;100.00
27984;BME280;15317;50.360;8.726;2022-10-13T13:17:42;99667.13;;;14.65;100.00
27984;BME280;15317;50.360;8.726;2022-10-13T13:21:45;99661.53;;;14.58;100.00
27984;BME280;15317;50.360;8.726;2022-10-13T13:25:58;99669.50;;;14.37;100.00
27984;BME280;15317;50.360;8.726;2022-10-13T13:30:00;99660.47;;;14.28;100.00
27984;BME280;15317;50.360;8.726;2022-10-13T13:34:04;99666.63;;;14.38;100.00
27984;BME280;15317;50.360;8.726;2022-10-13T13:38:08;99674.78;;;14.46;100.00
27984;BME280;15317;50.360;8.726;2022-10-13T13:42:13;99672.47;;;14.58;100.00
27984;BME280;15317;50.360;8.726;2022-10-13T13:46:17;99670.19;;;14.61;100.00
27984;BME280;15317;50.360;8.726;2022-10-13T13:50:24;99662.00;;;14.61;100.00
27984;BME280;15317;50.360;8.726;2022-10-13T13:54:27;99661.09;;;14.69;100.00
27984;BME280;15317;50.360;8.726;2022-10-13T13:58:29;99651.00;;;14.70;100.00
27984;BME280;15317;50.360;8.726;2022-10-13T14:02:32;99638.84;;;14.49;100.00
27984;BME280;15317;50.360;8.726;2022-10-13T14:06:35;99639.16;;;14.54;100.00
27984;BME280;15317;50.360;8.726;2022-10-13T14:10:38;99646.59;;;14.46;100.00
27984;BME280;15317;50.360;8.726;2022-10-13T14:14:41;99637.31;;;14.47;100.00
27984;BME280;15317;50.360;8.726;2022-10-13T14:18:43;99645.41;;;14.40;100.00
27984;BME280;15317;50.360;8.726;2022-10-13T14:22:46;99646.66;;;14.30;100.00
27984;BME280;15317;50.360;8.726;2022-10-13T14:26:49;99644.38;;;14.33;100.00
27984;BME280;15317;50.360;8.726;2022-10-13T14:30:51;99643.47;;;14.18;100.00
27984;BME280;15317;50.360;8.726;2022-10-13T14:34:53;99635.66;;;14.07;100.00
27984;BME280;15317;50.360;8.726;2022-10-13T14:38:56;99630.31;;;13.91;100.00
27984;BME280;15317;50.360;8.726;2022-10-13T14:42:58;99632.03;;;13.83;100.00
27984;BME280;15317;50.360;8.726;2022-10-13T14:47:00;99624.50;;;13.85;100.00
27984;BME280;15317;50.360;8.726;2022-10-13T14:51:03;99625.44;;;14.01;100.00
27984;BME280;15317;50.360;8.726;2022-10-13T14:55:08;99622.13;;;14.13;100.00
27984;BME280;15317;50.360;8.726;2022-10-13T14:59:10;99630.88;;;14.09;100.00
27984;BME280;15317;50.360;8.726;2022-10-13T15:03:12;99624.13;;;13.97;100.00
27984;BME280;15317;50.360;8.726;2022-10-13T15:07:14;99628.41;;;13.91;100.00
27984;BME280;15317;50.360;8.726;2022-10-13T15:11:20;99633.34;;;13.96;100.00
27984;BME280;15317;50.360;8.726;2022-10-13T15:15:22;99627.94;;;13.79;100.00
27984;BME280;15317;50.360;8.726;2022-10-13T15:19:24;99635.97;;;13.81;100.00
27984;BME280;15317;50.360;8.726;2022-10-13T15:23:26;99620.78;;;13.78;100.00
27984;BME280;15317;50.360;8.726;2022-10-13T15:27:29;99621.34;;;13.66;100.00
27984;BME280;15317;50.360;8.726;2022-10-13T15:31:31;99623.91;;;13.67;100.00
27984;BME280;15317;50.360;8.726;2022-10-13T15:35:33;99621.19;;;13.59;100.00
27984;BME280;15317;50.360;8.726;2022-10-13T15:39:35;99618.16;;;13.54;100.00
27984;BME280;15317;50.360;8.726;2022-10-13T15:43:39;99612.38;;;13.49;100.00
27984;BME280;15317;50.360;8.726;2022-10-13T15:47:41;99610.31;;;13.51;100.00
27984;BME280;15317;50.360;8.726;2022-10-13T15:51:43;99611.00;;;13.45;100.00
27984;BME280;15317;50.360;8.726;2022-10-13T15:55:45;99613.22;;;13.58;100.00
27984;BME280;15317;50.360;8.726;2022-10-13T15:59:48;99611.31;;;13.58;100.00
27984;BME280;15317;50.360;8.726;2022-10-13T16:03:52;99615.41;;;13.62;100.00
27984;BME280;15317;50.360;8.726;2022-10-13T16:07:54;99611.13;;;13.60;100.00
27984;BME280;15317;50.360;8.726;2022-10-13T16:11:56;99616.09;;;13.56;100.00
27984;BME280;15317;50.360;8.726;2022-10-13T16:16:00;99606.03;;;13.57;100.00
27984;BME280;15317;50.360;8.726;2022-10-13T16:20:03;99608.94;;;13.55;100.00
27984;BME280;15317;50.360;8.726;2022-10-13T16:24:05;99603.66;;;13.54;100.00
27984;BME280;15317;50.360;8.726;2022-10-13T16:28:08;99605.03;;;13.50;100.00
27984;BME280;15317;50.360;8.726;2022-10-13T16:32:11;99609.13;;;13.45;100.00
27984;BME280;15317;50.360;8.726;2022-10-13T16:36:15;99613.41;;;13.40;100.00
27984;BME280;15317;50.360;8.726;2022-10-13T16:40:18;99612.25;;;13.34;100.00
27984;BME280;15317;50.360;8.726;2022-10-13T16:44:20;99604.41;;;13.31;100.00
27984;BME280;15317;50.360;8.726;2022-10-13T16:48:23;99606.63;;;13.28;100.00
27984;BME280;15317;50.360;8.726;2022-10-13T16:52:26;99605.97;;;13.18;100.00
27984;BME280;15317;50.360;8.726;2022-10-13T16:56:28;99610.22;;;13.12;100.00
27984;BME280;15317;50.360;8.726;2022-10-13T17:00:30;99598.28;;;13.05;100.00
27984;BME280;15317;50.360;8.726;2022-10-13T17:04:34;99606.13;;;13.08;100.00
27984;BME280;15317;50.360;8.726;2022-10-13T17:08:36;99608.34;;;13.04;100.00
27984;BME280;15317;50.360;8.726;2022-10-13T17:12:38;99614.47;;;13.06;100.00
27984;BME280;15317;50.360;8.726;2022-10-13T17:16:40;99611.06;;;13.04;100.00
27984;BME280;15317;50.360;8.726;2022-10-13T17:20:50;99609.72;;;13.00;100.00
27984;BME280;15317;50.360;8.726;2022-10-13T17:24:53;99609.72;;;13.00;100.00
27984;BME280;15317;50.360;8.726;2022-10-13T17:28:55;99611.75;;;12.98;100.00
27984;BME280;15317;50.360;8.726;2022-10-13T17:32:57;99613.16;;;12.94;100.00
27984;BME280;15317;50.360;8.726;2022-10-13T17:37:00;99615.50;;;12.97;100.00
27984;BME280;15317;50.360;8.726;2022-10-13T17:41:04;99611.75;;;12.90;100.00
27984;BME280;15317;50.360;8.726;2022-10-13T17:45:08;99611.09;;;12.88;100.00
27984;BME280;15317;50.360;8.726;2022-10-13T17:49:11;99617.41;;;12.89;100.00
27984;BME280;15317;50.360;8.726;2022-10-13T17:53:14;99609.03;;;12.90;100.00
27984;BME280;15317;50.360;8.726;2022-10-13T17:57:16;99604.63;;;12.81;100.00
27984;BME280;15317;50.360;8.726;2022-10-13T18:01:20;99603.25;;;12.85;100.00
27984;BME280;15317;50.360;8.726;2022-10-13T18:05:23;99606.34;;;12.82;100.00
27984;BME280;15317;50.360;8.726;2022-10-13T18:09:27;99605.50;;;12.82;100.00
27984;BME280;15317;50.360;8.726;2022-10-13T18:13:29;99601.22;;;12.79;100.00
27984;BME280;15317;50.360;8.726;2022-10-13T18:17:31;99597.81;;;12.77;100.00
27984;BME280;15317;50.360;8.726;2022-10-13T18:21:34;99608.38;;;12.80;100.00
27984;BME280;15317;50.360;8.726;2022-10-13T18:25:37;99603.78;;;12.73;100.00
27984;BME280;15317;50.360;8.726;2022-10-13T18:29:40;99608.38;;;12.72;100.00
27984;BME280;15317;50.360;8.726;2022-10-13T18:33:43;99605.31;;;12.67;100.00
27984;BME280;15317;50.360;8.726;2022-10-13T18:37:48;99595.44;;;12.66;100.00
27984;BME280;15317;50.360;8.726;2022-10-13T18:41:53;99612.13;;;12.63;100.00
27984;BME280;15317;50.360;8.726;2022-10-13T18:46:02;99608.91;;;12.59;100.00
27984;BME280;15317;50.360;8.726;2022-10-13T18:50:10;99608.38;;;12.64;100.00
27984;BME280;15317;50.360;8.726;2022-10-13T18:54:12;99609.06;;;12.58;100.00
27984;BME280;15317;50.360;8.726;2022-10-13T18:58:15;99609.41;;;12.55;100.00
27984;BME280;15317;50.360;8.726;2022-10-13T19:02:17;99598.84;;;12.52;100.00
27984;BME280;15317;50.360;8.726;2022-10-13T19:06:22;99596.13;;;12.52;100.00
27984;BME280;15317;50.360;8.726;2022-10-13T19:10:27;99598.50;;;12.47;100.00
27984;BME280;15317;50.360;8.726;2022-10-13T19:14:31;99589.63;;;12.45;100.00
27984;BME280;15317;50.360;8.726;2022-10-13T19:18:34;99591.50;;;12.44;100.00
27984;BME280;15317;50.360;8.726;2022-10-13T19:22:36;99600.53;;;12.45;100.00
27984;BME280;15317;50.360;8.726;2022-10-13T19:26:39;99597.97;;;12.43;100.00
27984;BME280;15317;50.360;8.726;2022-10-13T19:30:42;99600.03;;;12.41;100.00
27984;BME280;15317;50.360;8.726;2022-10-13T19:34:44;99595.25;;;12.43;100.00
27984;BME280;15317;50.360;8.726;2022-10-13T19:38:47;99594.41;;;12.43;100.00
27984;BME280;15317;50.360;8.726;2022-10-13T19:42:49;99602.25;;;12.46;100.00
27984;BME280;15317;50.360;8.726;2022-10-13T19:46:53;99608.72;;;12.45;100.00
27984;BME280;15317;50.360;8.726;2022-10-13T19:50:55;99601.72;;;12.50;100.00
27984;BME280;15317;50.360;8.726;2022-10-13T19:54:57;99599.84;;;12.51;100.00
27984;BME280;15317;50.360;8.726;2022-10-13T19:59:01;99596.63;;;12.47;100.00
27984;BME280;15317;50.360;8.726;2022-10-13T20:03:05;99592.38;;;12.45;100.00
27984;BME280;15317;50.360;8.726;2022-10-13T20:07:07;99584.88;;;12.47;100.00
27984;BME280;15317;50.360;8.726;2022-10-13T20:11:16;99596.81;;;12.54;100.00
27984;BME280;15317;50.360;8.726;2022-10-13T20:15:18;99593.72;;;12.49;100.00
27984;BME280;15317;50.360;8.726;2022-10-13T20:19:22;99593.72;;;12.49;100.00
27984;BME280;15317;50.360;8.726;2022-10-13T20:23:25;99595.94;;;12.53;100.00
27984;BME280;15317;50.360;8.726;2022-10-13T20:27:27;99600.88;;;12.50;100.00
27984;BME280;15317;50.360;8.726;2022-10-13T20:31:30;99596.44;;;12.49;100.00
27984;BME280;15317;50.360;8.726;2022-10-13T20:35:34;99608.03;;;12.51;100.00
27984;BME280;15317;50.360;8.726;2022-10-13T20:39:36;99600.53;;;12.53;100.00
27984;BME280;15317;50.360;8.726;2022-10-13T20:43:39;99600.00;;;12.49;100.00
27984;BME280;15317;50.360;8.726;2022-10-13T20:47:41;99600.38;;;12.46;100.00
27984;BME280;15317;50.360;8.726;2022-10-13T20:51:45;99594.06;;;12.46;100.00
27984;BME280;15317;50.360;8.726;2022-10-13T20:55:53;99598.16;;;12.42;100.00
27984;BME280;15317;50.360;8.726;2022-10-13T20:59:56;99599.66;;;12.36;100.00
27984;BME280;15317;50.360;8.726;2022-10-13T21:03:58;99596.94;;;12.36;100.00
27984;BME280;15317;50.360;8.726;2022-10-13T21:08:02;99597.97;;;12.35;100.00
27984;BME280;15317;50.360;8.726;2022-10-13T21:12:05;99596.44;;;12.33;100.00
27984;BME280;15317;50.360;8.726;2022-10-13T21:16:10;99593.19;;;12.29;100.00
27984;BME280;15317;50.360;8.726;2022-10-13T21:20:13;99594.41;;;12.26;100.00
27984;BME280;15317;50.360;8.726;2022-10-13T21:24:17;99596.44;;;12.24;100.00
27984;BME280;15317;50.360;8.726;2022-10-13T21:28:19;99594.56;;;12.25;100.00
27984;BME280;15317;50.360;8.726;2022-10-13T21:32:22;99594.72;;;12.23;100.00